Ride Results

Southern Crosse (23-08-2008)
Ride distance: 80.0 km

Outcomes - Southern Crosse (23-08-2008)
Division No. of Entries Retired / DNE Completed Withdrawn Ineligible V/O Percentage Completed
HW 6 - 6 - - - 100.00%
MW 20 - 17 1 - 2 85.00%
LW 8 - 8 - - - 100.00%
JN 5 - 5 - - - 100.00%
Totals 39 - 36 1 - 2 92.31%
Results - Southern Crosse (23-08-2008)
No. Rider Horse Place Time Leg Speeds Total
Km/Hr
H/R bpm
Heavyweight
304 Luke Smallman Summerzar Nemesis 1 4:44:00 20.1, 14.5 16.90 28, 46, 49 (Avg:47)
62 Leah Leishman Mt Tawonga Wishing 2 (BC) 5:06:00 16.6, 14.8 15.69 31, 49, 58 (Avg:53)
9 Sandy Horton Sandine Bantry 3 6:02:00 16.4, 11.1 13.26 39, 48, 47 (Avg:47)
222 Tim Brudenell Meadow View Eternal Flame 4 6:07:00 15.7, 11.1 13.08 37, 47, 46 (Avg:46)
76 Russell Robinson On Jessies Terms 5 6:25:00 15.7, 10.3 12.47 37, 42, 48 (Avg:45)
58 Dianne Tobin Commanche Man 6 6:40:00 13.1, 11.0 12.00 39, 44, 57 (Avg:50)
Middleweight
84 Kristie Taprell Parlour Mountain Pandora 1 (BC) 5:04:00 15.8, 15.6 15.79 34, 43, 45 (Avg:44)
15 Meg Wade Castlebar Calipo 1 5:04:00 15.8, 15.6 15.79 28, 44, 48 (Avg:46)
89 Sheryl Herbert Krishlah Maleeka 3 6:07:00 14.2, 12.1 13.08 30, 51, 48 (Avg:49)
183 Nicky Robinson Castlebar Caro 4 6:28:00 13.0, 11.7 12.37 26, 38, 51 (Avg:44)
858 James Sheahan Castlebar Blue Jeans 4 6:28:00 13.0, 11.7 12.37 35, 48, 49 (Avg:48)
13 Linda Tanian Castlebar Nova 4 6:28:00 13.0, 11.7 12.37 36, 41, 45 (Avg:43)
181 Sharee Court Just Kira 7 6:31:00 12.9, 11.6 12.28 35, 54, 58 (Avg:56)
871 Dianne Leehane Shah 7 6:31:00 13.0, 11.5 12.28 27, 39, 46 (Avg:42)
33 Tamara Atkinson Cieanna 9 6:35:00 12.6, 11.6 12.15 37, 42, 55 (Avg:48)
38 Aaron Gay Conderosa Sovuryn 9 6:35:00 12.6, 11.6 12.15 44, 48, 58 (Avg:53)
69 Sue Cavill Koonwarra Kavalier 11 6:36:00 13.2, 11.1 12.12 34, 50, 57 (Avg:53)
130 Jennifer Carland Musical Gully Tenor 12 6:37:00 12.3, 11.8 12.09 32, 43, 53 (Avg:48)
872 Zoe Gardner Magic Glenn Kyalite 12 6:37:00 12.5, 11.6 12.09 36, 41, 46 (Avg:43)
869 Steve Blackhurst Quigley 14 6:40:00 12.6, 11.4 12.00 39, 49, 58 (Avg:53)
308 Melissa Cawthan Rothlynne Hijacker 15 6:49:00 12.9, 10.7 11.74 34, 38, 51 (Avg:44)
878 Amanda Jakiel Taylorsglen Renegade 15 6:49:00 12.9, 10.7 11.74 34, 42, 53 (Avg:47)
60 Leanne Wyllie Dunbraeton Farah 17 7:01:00 12.0, 10.8 11.40 35, 39, 50 (Avg:44)
56 Wendy Bootle Blue Bopp Heart Rate L2 0:00:00 16.6, 14.9 - 36, 47, 62 (Avg:54)
78 Jennifer Pitman Meg Heart Rate L2 0:00:00 15.3, 10.0 - 32, 49, 78 (Avg:63)
860 Gail Pound TB Kyneton Withdrawn L1 0:00:00 - - 37, 40 (Avg:40)
Lightweight
49 Jessica Remfry Ennerdale Meccano 1 6:07:00 14.2, 12.1 13.08 27, 37, 46 (Avg:41)
91 Kim Noble Roheryn Park Khaleef 2 (BC) 6:26:00 15.3, 10.4 12.44 36, 45, 47 (Avg:46)
210 Fiona Hodges Zara Farm Shoman 3 6:40:00 12.6, 11.4 12.00 55, 44, 50 (Avg:47)
203 Charlotte Plews Edilia The Sheik 4 6:49:00 12.9, 10.7 11.74 22, 37, 49 (Avg:43)
208 Janeen Smith Taylorsglen Osca 4 6:49:00 12.9, 10.7 11.74 28, 40, 51 (Avg:45)
61 Lois Sharam Musical Gully Carousel 6 7:01:00 12.0, 10.8 11.40 40, 44, 49 (Avg:46)
874 Jessica Aistrope Highland View Trooper 7 7:24:00 11.3, 10.3 10.81 37, 44, 48 (Avg:46)
103 Jess Welsh Highland View Beau 7 7:24:00 11.3, 10.3 10.81 34, 49, 52 (Avg:50)
Junior
102 Jesse McKinnon Darjan Jeesabelle 1 6:02:00 16.4, 11.1 13.26 32, 43, 51 (Avg:47)
90 Samantha Noble Springridge Bungendore 2 6:26:00 15.3, 10.4 12.44 30, 38, 38 (Avg:38)
881 Phoebe Gardner Windradyne Centrefold 3 6:37:00 12.5, 11.6 12.09 40, 43, 46 (Avg:44)
908 Harlee McCarthy Shuja Dark Royalty 4 7:05:00 12.1, 10.5 11.29 28, 37, 38 (Avg:37)
907 Jessica McInnes McCarthy Poesie de Ibn Shahn 4 7:05:00 12.1, 10.5 11.29 29, 39, 46 (Avg:42)